Time;durP1;ratioP1;P1;durP2;ratioP2;P2;SDS_P1;SDS_P2;PMS_P1;PMS_P2;Temp;Humidity;BMP_temperature;BMP_pressure;BME280_temperature;BME280_humidity;BME280_pressure;Samples;Min_cycle;Max_cycle;Signal;HPM_P1;HPM_P2
2021/12/15 00:00:16;;;;;;;29.35;16.05;;;10.10;94.00;;;;;;4897769;29;20096;-76
2021/12/15 00:02:44;;;;;;;26.95;15.98;;;10.10;94.00;;;;;;4897769;29;20028;-76
2021/12/15 00:05:11;;;;;;;30.75;16.80;;;10.10;94.00;;;;;;4896616;29;20040;-75
2021/12/15 00:07:37;;;;;;;29.92;17.17;;;10.10;94.00;;;;;;4896810;29;20028;-76
2021/12/15 00:10:06;;;;;;;32.88;16.50;;;10.10;94.00;;;;;;4896498;29;20025;-75
2021/12/15 00:12:32;;;;;;;32.53;16.73;;;10.10;94.00;;;;;;4896682;29;20481;-75
2021/12/15 00:14:57;;;;;;;31.70;17.42;;;10.10;94.00;;;;;;4897735;29;20031;-75
2021/12/15 00:17:23;;;;;;;28.65;15.73;;;10.00;94.10;;;;;;4896564;29;20027;-75
2021/12/15 00:19:50;;;;;;;27.15;16.40;;;10.00;94.00;;;;;;4896257;29;20038;-75
2021/12/15 00:22:17;;;;;;;29.80;15.63;;;10.00;93.90;;;;;;4897700;29;20048;-75
2021/12/15 00:24:43;;;;;;;29.17;16.98;;;10.20;94.10;;;;;;4897609;29;20020;-75
2021/12/15 00:27:09;;;;;;;26.80;16.10;;;9.90;93.90;;;;;;4896499;29;20024;-76
2021/12/15 00:29:34;;;;;;;31.02;15.98;;;10.10;94.00;;;;;;4896264;29;20068;-75
2021/12/15 00:32:04;;;;;;;32.40;16.05;;;10.20;94.10;;;;;;4897554;29;20067;-75
2021/12/15 00:34:34;;;;;;;27.60;16.02;;;10.10;94.00;;;;;;4896221;29;20053;-75
2021/12/15 00:37:00;;;;;;;27.30;16.35;;;10.10;94.00;;;;;;4895940;29;20031;-75
2021/12/15 00:39:27;;;;;;;29.02;16.10;;;10.10;93.90;;;;;;4895709;29;20020;-75
2021/12/15 00:41:53;;;;;;;28.40;15.55;;;10.00;93.90;;;;;;4897394;29;20072;-75
2021/12/15 00:44:19;;;;;;;27.45;15.38;;;10.10;93.90;;;;;;4896071;29;20020;-74
2021/12/15 00:46:45;;;;;;;27.55;16.50;;;10.10;94.00;;;;;;4896310;29;20020;-75
2021/12/15 00:49:11;;;;;;;26.48;15.65;;;10.00;94.00;;;;;;4895856;29;20021;-74
2021/12/15 00:51:38;;;;;;;22.42;15.75;;;10.10;94.00;;;;;;4897393;29;20048;-75
2021/12/15 00:54:05;;;;;;;23.25;15.40;;;10.10;93.90;;;;;;4896193;29;20024;-74
2021/12/15 00:56:32;;;;;;;23.27;16.10;;;10.10;94.00;;;;;;4896212;29;20036;-75
2021/12/15 00:58:58;;;;;;;22.25;15.32;;;10.10;94.50;;;;;;4895858;29;20025;-75
2021/12/15 01:01:23;;;;;;;23.33;15.05;;;10.10;94.20;;;;;;4897171;29;20033;-75
2021/12/15 01:03:50;;;;;;;22.58;15.35;;;10.10;94.10;;;;;;4897203;29;20025;-74
2021/12/15 01:06:18;;;;;;;22.52;15.32;;;10.20;94.10;;;;;;4926102;23;20048;-86
2021/12/15 01:08:48;;;;;;;21.45;14.32;;;10.20;94.10;;;;;;4887809;29;20536;-89
2021/12/15 01:11:33;;;;;;;23.50;14.10;;;10.30;94.10;;;;;;4887781;29;20384;-88
2021/12/15 01:19:54;;;;;;;21.48;14.98;;;10.20;94.00;;;;;;4905277;29;20077;-86
2021/12/15 01:22:27;;;;;;;21.42;14.38;;;10.30;94.10;;;;;;4888404;29;20025;-87
2021/12/15 01:24:56;;;;;;;22.77;14.77;;;10.20;94.00;;;;;;4888272;29;20025;-86
2021/12/15 01:27:22;;;;;;;21.67;14.95;;;10.30;94.00;;;;;;4904660;29;20613;-86
2021/12/15 01:29:48;;;;;;;24.77;15.82;;;10.20;94.00;;;;;;4903763;29;20730;-87
2021/12/15 01:32:14;;;;;;;22.23;14.65;;;10.30;94.00;;;;;;4887452;29;20032;-87
2021/12/15 01:34:39;;;;;;;20.30;14.45;;;10.40;94.00;;;;;;4887024;29;20025;-87
2021/12/15 01:37:06;;;;;;;20.33;14.73;;;10.20;93.90;;;;;;4886605;29;20050;-87
2021/12/15 01:39:32;;;;;;;20.92;14.48;;;10.30;94.00;;;;;;4887387;29;20503;-86
2021/12/15 01:41:58;;;;;;;21.70;15.07;;;10.30;94.00;;;;;;4886741;29;20025;-86
2021/12/15 01:46:56;;;;;;;22.00;14.75;;;10.30;94.00;;;;;;4905023;29;20016;-86
2021/12/15 01:49:32;;;;;;;22.30;15.23;;;10.30;93.90;;;;;;4887597;29;20021;-86
2021/12/15 01:52:02;;;;;;;22.27;14.98;;;10.30;94.00;;;;;;4890199;29;20031;-87
2021/12/15 01:54:30;;;;;;;19.80;14.52;;;10.30;94.00;;;;;;4891108;29;20420;-85
2021/12/15 01:56:56;;;;;;;20.45;15.10;;;10.30;94.10;;;;;;4890479;29;20115;-88
2021/12/15 01:59:24;;;;;;;19.88;14.27;;;10.30;94.10;;;;;;4890059;29;20033;-87
2021/12/15 02:01:50;;;;;;;21.67;14.48;;;10.30;94.20;;;;;;4890147;29;20029;-88
2021/12/15 02:04:18;;;;;;;19.35;14.38;;;10.20;94.20;;;;;;4890130;29;20056;-86
2021/12/15 02:06:46;;;;;;;20.10;13.80;;;10.20;94.30;;;;;;4889894;29;20036;-87
2021/12/15 02:09:15;;;;;;;20.90;14.88;;;10.10;94.30;;;;;;4889698;29;20016;-86
2021/12/15 02:11:41;;;;;;;20.25;13.70;;;10.00;94.30;;;;;;4890089;29;20028;-86
2021/12/15 02:14:07;;;;;;;20.17;14.32;;;10.10;94.40;;;;;;4889911;29;20548;-87
2021/12/15 02:16:33;;;;;;;19.05;14.05;;;10.20;94.50;;;;;;4890117;29;20036;-87
2021/12/15 02:18:59;;;;;;;21.10;14.77;;;10.20;94.50;;;;;;4889908;29;20119;-86
2021/12/15 02:21:25;;;;;;;19.17;14.38;;;9.90;94.40;;;;;;4889491;29;20029;-87
2021/12/15 02:23:55;;;;;;;18.95;14.25;;;10.00;94.50;;;;;;4890323;29;20017;-87
2021/12/15 02:26:25;;;;;;;19.67;14.40;;;10.00;94.50;;;;;;4889378;29;20024;-87
2021/12/15 02:28:55;;;;;;;19.73;14.00;;;10.10;94.60;;;;;;4890393;29;20024;-86
2021/12/15 02:31:52;;;;;;;20.90;14.23;;;10.10;94.60;;;;;;4890301;29;20028;-86
2021/12/15 02:39:40;;;;;;;20.10;14.45;;;10.00;94.60;;;;;;4907497;29;20029;-88
2021/12/15 02:42:07;;;;;;;22.42;15.55;;;10.00;94.60;;;;;;4889292;29;20029;-87
2021/12/15 02:44:34;;;;;;;19.48;14.55;;;10.10;94.60;;;;;;4889069;29;20076;-88
2021/12/15 02:46:59;;;;;;;19.33;14.15;;;10.10;94.70;;;;;;4889544;29;20468;-87
2021/12/15 02:49:27;;;;;;;19.67;15.10;;;10.10;94.70;;;;;;4889676;29;20027;-87
2021/12/15 02:51:56;;;;;;;18.88;14.43;;;10.10;94.70;;;;;;4889367;29;20039;-87
2021/12/15 02:54:22;;;;;;;23.13;15.43;;;10.10;94.70;;;;;;4889664;29;20469;-87
2021/12/15 02:56:52;;;;;;;20.45;14.15;;;10.20;94.70;;;;;;4889562;29;20056;-86
2021/12/15 02:59:25;;;;;;;21.35;15.32;;;10.10;94.60;;;;;;4889324;29;20024;-89
2021/12/15 03:02:10;;;;;;;20.90;15.10;;;10.10;94.50;;;;;;4889217;29;20107;-88
2021/12/15 03:07:11;;;;;;;20.98;14.93;;;10.00;94.50;;;;;;4906369;29;20107;-87
2021/12/15 03:18:16;;;;;;;21.13;15.20;;;10.10;94.60;;;;;;4903647;29;20478;-87
2021/12/15 03:20:51;;;;;;;21.98;15.90;;;10.00;94.50;;;;;;4889507;29;20374;-88
2021/12/15 03:23:29;;;;;;;22.98;15.55;;;10.20;94.60;;;;;;4893809;29;20056;-87
2021/12/15 03:25:56;;;;;;;21.83;15.98;;;10.10;94.60;;;;;;4888121;29;20052;-87
2021/12/15 03:37:22;;;;;;;26.10;17.13;;;10.00;94.60;;;;;;4905759;29;20587;-87
2021/12/15 03:40:09;;;;;;;28.88;18.42;;;10.10;94.60;;;;;;4898344;29;20040;-87
2021/12/15 03:42:40;;;;;;;25.70;17.90;;;10.20;94.70;;;;;;4887717;29;20028;-88
2021/12/15 03:45:13;;;;;;;27.13;19.08;;;10.20;94.70;;;;;;4888670;29;20020;-87
2021/12/15 03:47:46;;;;;;;27.40;19.00;;;10.20;94.70;;;;;;4887900;29;20024;-90
2021/12/15 03:50:14;;;;;;;26.77;19.35;;;10.20;94.70;;;;;;4888430;29;20044;-87
2021/12/15 03:52:40;;;;;;;27.63;19.23;;;10.10;94.60;;;;;;4888859;29;20096;-89
2021/12/15 03:55:08;;;;;;;26.70;19.70;;;10.20;94.70;;;;;;4887943;29;20128;-89
2021/12/15 03:57:33;;;;;;;29.98;20.38;;;10.10;94.60;;;;;;4888848;29;20021;-86
2021/12/15 03:59:59;;;;;;;27.48;19.45;;;10.10;94.60;;;;;;4888574;29;20072;-89
2021/12/15 04:02:25;;;;;;;29.98;20.95;;;10.00;94.60;;;;;;4888128;29;20412;-88
2021/12/15 04:04:52;;;;;;;30.33;20.92;;;10.10;94.60;;;;;;4887474;29;20024;-89
2021/12/15 04:07:21;;;;;;;27.33;19.45;;;10.10;94.60;;;;;;4887995;29;20024;-88
2021/12/15 04:09:50;;;;;;;30.75;21.08;;;10.10;94.60;;;;;;4887918;29;20052;-89
2021/12/15 04:12:16;;;;;;;30.58;21.10;;;10.20;94.60;;;;;;4888181;29;20035;-88
2021/12/15 04:14:45;;;;;;;28.63;20.25;;;10.10;94.60;;;;;;4887548;29;20048;-87
2021/12/15 04:17:26;;;;;;;31.02;21.77;;;10.10;94.60;;;;;;4888273;29;20039;-89
2021/12/15 04:19:58;;;;;;;29.90;21.10;;;10.20;94.90;;;;;;4887623;29;20024;-88
2021/12/15 04:22:25;;;;;;;33.00;22.05;;;10.10;94.60;;;;;;4888123;29;20032;-86
2021/12/15 04:24:52;;;;;;;30.33;21.00;;;10.10;94.60;;;;;;4888009;29;20420;-88
2021/12/15 04:27:18;;;;;;;30.70;21.15;;;10.20;94.60;;;;;;4887713;29;20112;-88
2021/12/15 04:29:46;;;;;;;30.60;21.80;;;10.20;94.60;;;;;;4904558;29;20499;-90
2021/12/15 04:32:18;;;;;;;31.13;21.38;;;10.20;94.60;;;;;;4887593;29;20036;-87
2021/12/15 04:34:44;;;;;;;31.38;21.67;;;10.10;94.50;;;;;;4887375;29;20162;-87
2021/12/15 04:37:10;;;;;;;33.67;22.70;;;10.10;94.60;;;;;;4887510;29;20087;-86
2021/12/15 04:39:35;;;;;;;31.70;21.90;;;10.10;94.50;;;;;;4887660;29;20028;-87
2021/12/15 04:42:02;;;;;;;33.17;23.42;;;10.20;94.60;;;;;;4887094;29;20024;-87
2021/12/15 04:44:30;;;;;;;32.53;22.67;;;10.10;94.50;;;;;;4887495;29;20111;-85
2021/12/15 04:47:11;;;;;;;33.83;23.17;;;10.20;94.60;;;;;;4887009;29;20052;-88
2021/12/15 04:49:43;;;;;;;34.45;22.95;;;10.10;94.60;;;;;;4900919;29;20459;-87
2021/12/15 04:52:12;;;;;;;33.53;23.48;;;10.10;94.50;;;;;;4883683;29;20133;-88
2021/12/15 04:54:38;;;;;;;33.13;23.20;;;10.20;94.60;;;;;;4868761;29;20079;-88
2021/12/15 04:57:05;;;;;;;35.97;24.20;;;10.20;94.60;;;;;;4886353;29;20035;-88
2021/12/15 04:59:31;;;;;;;34.00;23.17;;;10.20;94.60;;;;;;4886390;29;20647;-86
2021/12/15 05:01:58;;;;;;;32.40;22.92;;;10.10;94.50;;;;;;4886944;29;20079;-88
2021/12/15 05:04:25;;;;;;;32.95;22.67;;;10.00;94.50;;;;;;4886567;29;20016;-86
2021/12/15 05:06:51;;;;;;;32.97;24.63;;;10.00;94.50;;;;;;4886054;29;20033;-87
2021/12/15 05:09:17;;;;;;;32.90;23.40;;;10.20;94.60;;;;;;4886799;29;20544;-87
2021/12/15 05:11:45;;;;;;;33.25;21.98;;;10.20;94.60;;;;;;4887310;29;20048;-88
2021/12/15 05:14:10;;;;;;;35.05;23.40;;;10.00;94.50;;;;;;4887034;29;20021;-87
2021/12/15 05:16:36;;;;;;;33.22;22.95;;;10.10;94.60;;;;;;4903930;29;20072;-88
2021/12/15 05:19:02;;;;;;;35.42;23.20;;;10.20;94.60;;;;;;4885141;29;20053;-88
2021/12/15 05:21:30;;;;;;;32.70;22.40;;;10.20;94.60;;;;;;4876586;29;20503;-87
2021/12/15 05:24:00;;;;;;;35.63;24.17;;;10.10;94.60;;;;;;4885014;29;20488;-86
2021/12/15 05:26:25;;;;;;;32.70;22.55;;;10.10;94.60;;;;;;4869745;29;20485;-86
2021/12/15 05:28:51;;;;;;;31.88;22.70;;;10.00;94.60;;;;;;4870380;29;20049;-85
2021/12/15 05:31:18;;;;;;;32.25;23.17;;;10.20;94.60;;;;;;4866401;29;20021;-90
2021/12/15 05:33:43;;;;;;;33.33;23.35;;;10.00;94.50;;;;;;4885262;29;20084;-87
2021/12/15 07:09:14;;;;;;;28.65;19.15;;;10.10;94.80;;;;;;4896492;29;20477;-77
2021/12/15 07:11:41;;;;;;;26.20;18.90;;;10.10;94.80;;;;;;4897011;29;20029;-77
2021/12/15 07:14:07;;;;;;;26.65;18.05;;;10.10;94.70;;;;;;4897044;29;20056;-76
2021/12/15 07:16:34;;;;;;;29.50;19.40;;;10.10;94.80;;;;;;4896958;29;20485;-78
2021/12/15 07:19:07;;;;;;;25.75;18.30;;;10.10;94.80;;;;;;4896732;29;20033;-77
2021/12/15 07:21:40;;;;;;;26.23;18.52;;;10.10;94.70;;;;;;4897257;29;20408;-77
2021/12/15 07:24:07;;;;;;;25.00;18.75;;;10.10;95.00;;;;;;4896808;29;20036;-76
2021/12/15 07:26:34;;;;;;;25.95;18.27;;;10.20;94.80;;;;;;4896636;29;20031;-77
2021/12/15 07:29:00;;;;;;;26.20;18.55;;;10.10;94.80;;;;;;4896580;29;20028;-76
2021/12/15 07:31:25;;;;;;;25.42;18.58;;;10.10;94.70;;;;;;4896560;29;20500;-77
2021/12/15 07:33:51;;;;;;;26.92;18.88;;;10.20;94.70;;;;;;4896814;29;20033;-77
2021/12/15 07:36:17;;;;;;;26.00;18.20;;;10.20;94.80;;;;;;4896569;29;20068;-77
2021/12/15 07:38:44;;;;;;;26.67;19.30;;;10.10;94.70;;;;;;4896728;29;20029;-77
2021/12/15 07:41:42;;;;;;;25.67;18.40;;;10.10;94.90;;;;;;4896224;29;20033;-78
2021/12/15 07:44:06;;;;;;;24.60;18.20;;;10.20;94.80;;;;;;4897591;29;20017;-77
2021/12/15 07:46:32;;;;;;;25.77;18.35;;;10.20;94.70;;;;;;4896625;29;20028;-76
2021/12/15 07:48:57;;;;;;;24.95;18.10;;;10.20;94.70;;;;;;4895692;29;20025;-75
2021/12/15 07:51:24;;;;;;;27.50;19.40;;;10.10;94.70;;;;;;4896328;29;20033;-77
2021/12/15 07:53:49;;;;;;;25.88;18.92;;;10.20;94.70;;;;;;4896414;29;20047;-78
2021/12/15 07:56:16;;;;;;;25.83;18.83;;;10.10;94.70;;;;;;4896260;29;20401;-77
2021/12/15 07:58:42;;;;;;;24.38;17.65;;;10.10;94.70;;;;;;4896334;29;20032;-76
2021/12/15 08:01:09;;;;;;;25.58;18.55;;;10.10;94.70;;;;;;4896121;29;20505;-77
2021/12/15 08:03:38;;;;;;;24.88;18.17;;;10.10;94.70;;;;;;4896387;29;20378;-77
2021/12/15 08:06:04;;;;;;;25.60;18.65;;;10.10;94.90;;;;;;4896141;29;20052;-76
2021/12/15 08:08:31;;;;;;;26.02;18.50;;;10.20;94.70;;;;;;4896090;29;20073;-76
2021/12/15 08:10:57;;;;;;;26.20;18.15;;;10.10;94.70;;;;;;4897064;29;20028;-76
2021/12/15 08:13:25;;;;;;;24.15;17.52;;;10.20;94.70;;;;;;4896177;29;20029;-77
2021/12/15 08:15:51;;;;;;;23.70;17.50;;;10.20;94.70;;;;;;4896126;29;20026;-76
2021/12/15 08:18:17;;;;;;;24.63;17.65;;;10.20;94.70;;;;;;4896016;29;20392;-77
2021/12/15 08:20:42;;;;;;;24.80;18.10;;;10.20;94.60;;;;;;4895674;29;20076;-76
2021/12/15 08:23:08;;;;;;;26.10;18.27;;;10.20;94.80;;;;;;4895917;29;20144;-76
2021/12/15 08:25:35;;;;;;;25.05;18.17;;;10.10;94.80;;;;;;4895478;29;20104;-77
2021/12/15 08:28:02;;;;;;;24.77;18.10;;;10.10;94.70;;;;;;4895953;29;20120;-77
2021/12/15 08:30:29;;;;;;;25.58;18.20;;;10.20;94.60;;;;;;4895413;29;20084;-76
2021/12/15 08:32:58;;;;;;;23.80;17.13;;;10.20;94.70;;;;;;4895906;29;20036;-77
2021/12/15 08:35:29;;;;;;;25.80;18.55;;;10.10;94.60;;;;;;4895605;29;20036;-76
2021/12/15 08:37:55;;;;;;;25.10;18.25;;;10.20;94.90;;;;;;4895775;29;20029;-77
2021/12/15 08:40:22;;;;;;;24.90;18.10;;;10.20;95.10;;;;;;4895509;29;20411;-77
2021/12/15 08:42:48;;;;;;;24.40;17.90;;;10.20;94.80;;;;;;4895768;29;20091;-78
2021/12/15 08:45:14;;;;;;;24.92;17.83;;;10.20;94.80;;;;;;4895575;29;20477;-77
2021/12/15 08:47:40;;;;;;;24.73;18.23;;;10.20;94.80;;;;;;4895648;29;20060;-77
2021/12/15 08:50:09;;;;;;;25.05;18.30;;;10.20;94.80;;;;;;4895295;29;20556;-77
2021/12/15 08:52:35;;;;;;;25.00;18.25;;;10.30;94.80;;;;;;4894295;29;20330;-78
2021/12/15 08:55:02;;;;;;;25.75;18.33;;;10.30;94.70;;;;;;4895497;29;20032;-78
2021/12/15 08:57:27;;;;;;;23.58;17.77;;;10.30;94.70;;;;;;4894349;29;20025;-78
2021/12/15 08:59:53;;;;;;;25.10;18.05;;;10.30;94.70;;;;;;4896333;29;20032;-76
2021/12/15 09:02:19;;;;;;;26.23;18.23;;;10.30;94.60;;;;;;4898889;29;20032;-77
2021/12/15 09:04:44;;;;;;;25.95;18.63;;;10.30;94.70;;;;;;4899340;29;20055;-77
2021/12/15 09:07:10;;;;;;;25.17;18.17;;;10.30;94.70;;;;;;4899251;29;20108;-77
2021/12/15 09:09:36;;;;;;;25.88;18.50;;;10.40;94.70;;;;;;4899142;29;20032;-76
2021/12/15 09:12:03;;;;;;;25.98;19.08;;;10.30;94.60;;;;;;4899602;29;20035;-77
2021/12/15 09:14:29;;;;;;;27.15;19.67;;;10.30;94.60;;;;;;4899226;29;20116;-76
2021/12/15 09:16:57;;;;;;;26.35;18.83;;;10.30;94.60;;;;;;4899118;29;20136;-78
2021/12/15 09:19:23;;;;;;;28.25;19.77;;;10.30;94.60;;;;;;4898689;29;20033;-76
2021/12/15 09:21:51;;;;;;;28.83;19.95;;;10.30;94.60;;;;;;4899100;29;20602;-77
2021/12/15 09:24:20;;;;;;;28.52;19.92;;;10.40;94.70;;;;;;4899040;29;20503;-76
2021/12/15 09:26:46;;;;;;;27.88;19.23;;;10.30;94.70;;;;;;4898990;29;20032;-76
2021/12/15 09:29:12;;;;;;;28.95;19.90;;;10.30;94.70;;;;;;4898826;29;20037;-77
2021/12/15 09:31:39;;;;;;;28.60;20.10;;;10.30;94.70;;;;;;4898919;29;20025;-77
2021/12/15 09:34:06;;;;;;;28.63;20.40;;;10.40;94.70;;;;;;4898753;29;20085;-76
2021/12/15 09:36:32;;;;;;;29.83;20.95;;;10.30;94.70;;;;;;4898773;29;20032;-78
2021/12/15 09:39:03;;;;;;;28.73;20.52;;;10.30;94.70;;;;;;4898578;29;20111;-76
2021/12/15 09:41:29;;;;;;;30.30;20.75;;;10.30;94.80;;;;;;4898850;29;20100;-76
2021/12/15 09:43:58;;;;;;;30.08;20.77;;;10.20;94.90;;;;;;4898710;29;20063;-78
2021/12/15 09:57:27;;;;;;;30.30;20.65;;;10.20;95.50;;;;;;4900108;29;20039;-78
2021/12/15 10:05:22;;;;;;;30.10;20.88;;;10.20;95.30;;;;;;4899835;29;20032;-78
2021/12/15 10:19:08;;;;;;;30.45;21.83;;;10.20;95.30;;;;;;4877201;29;20028;-79
2021/12/15 10:21:34;;;;;;;34.50;22.80;;;10.10;95.20;;;;;;4897981;29;20031;-78
2021/12/15 10:24:01;;;;;;;33.42;21.92;;;10.10;95.20;;;;;;4897960;29;20063;-78
2021/12/15 10:26:27;;;;;;;32.67;22.13;;;10.20;95.20;;;;;;4898194;29;20048;-76
2021/12/15 10:28:53;;;;;;;30.77;21.15;;;10.20;95.30;;;;;;4897922;29;20070;-76
2021/12/15 10:31:24;;;;;;;33.17;23.25;;;10.20;95.30;;;;;;4897719;29;20043;-77
2021/12/15 10:33:54;;;;;;;33.03;21.88;;;10.20;95.30;;;;;;4897800;29;20064;-78
2021/12/15 10:36:26;;;;;;;31.92;22.08;;;10.20;95.30;;;;;;4897660;29;20088;-76
2021/12/15 10:38:58;;;;;;;31.75;22.15;;;10.20;95.30;;;;;;4897728;29;20131;-77
2021/12/15 10:41:32;;;;;;;33.50;22.67;;;10.20;95.30;;;;;;4897813;29;20033;-77
2021/12/15 10:44:01;;;;;;;32.42;22.52;;;10.20;95.30;;;;;;4897818;29;20028;-77
2021/12/15 10:46:30;;;;;;;32.20;21.90;;;10.20;95.30;;;;;;4897399;29;20021;-76
2021/12/15 10:49:09;;;;;;;34.10;22.00;;;10.20;95.30;;;;;;4897562;29;20024;-76
2021/12/15 10:51:54;;;;;;;35.08;22.90;;;10.20;95.30;;;;;;4897499;29;20025;-76
2021/12/15 10:54:25;;;;;;;33.10;22.60;;;10.20;95.30;;;;;;4897644;29;20036;-76
2021/12/15 10:57:03;;;;;;;33.25;22.33;;;10.20;95.30;;;;;;4897317;29;20401;-77
2021/12/15 10:59:35;;;;;;;31.77;21.60;;;10.20;95.30;;;;;;4897222;29;20050;-77
2021/12/15 11:02:05;;;;;;;;;;;10.20;95.30;;;;;;4897229;29;20031;-76
2021/12/15 11:04:43;;;;;;;34.10;21.55;;;10.20;95.20;;;;;;4897340;29;20331;-77
2021/12/15 11:07:26;;;;;;;35.28;22.95;;;10.20;95.20;;;;;;4897098;29;20033;-78
2021/12/15 11:10:10;;;;;;;31.25;21.27;;;10.20;95.20;;;;;;4897047;29;20039;-77
2021/12/15 11:12:43;;;;;;;31.42;21.42;;;10.20;95.20;;;;;;4897296;29;20035;-76
2021/12/15 11:15:17;;;;;;;31.25;21.73;;;10.20;95.20;;;;;;4897019;29;20039;-76
2021/12/15 11:17:45;;;;;;;31.13;21.90;;;10.20;95.20;;;;;;4897140;29;20024;-76
2021/12/15 11:20:22;;;;;;;31.45;21.55;;;10.20;95.20;;;;;;4896883;29;20024;-76
2021/12/15 11:23:16;;;;;;;32.38;22.17;;;10.20;95.20;;;;;;4896887;29;20077;-76
2021/12/15 11:25:44;;;;;;;30.98;22.30;;;10.20;95.20;;;;;;4889161;29;20111;-76
2021/12/15 11:28:25;;;;;;;31.85;21.75;;;10.20;95.20;;;;;;4896893;29;20025;-76
2021/12/15 11:31:02;;;;;;;32.35;21.92;;;10.20;95.20;;;;;;4896613;29;20028;-77
2021/12/15 11:33:37;;;;;;;30.75;21.63;;;10.20;95.10;;;;;;4898057;29;20039;-77
2021/12/15 11:36:12;;;;;;;32.63;22.42;;;10.20;95.40;;;;;;4896913;29;20031;-76
2021/12/15 11:38:43;;;;;;;30.55;21.58;;;10.20;95.10;;;;;;4896724;29;20020;-76
2021/12/15 11:41:16;;;;;;;33.75;22.55;;;10.20;95.30;;;;;;4896322;29;20468;-76
2021/12/15 11:43:50;;;;;;;32.20;21.80;;;10.20;95.20;;;;;;4896647;29;20027;-76
2021/12/15 11:46:30;;;;;;;32.30;22.95;;;10.20;95.20;;;;;;4896748;29;20350;-76
2021/12/15 11:49:12;;;;;;;32.15;22.38;;;10.20;95.10;;;;;;4896385;29;20036;-74
2021/12/15 11:51:54;;;;;;;34.97;23.25;;;10.20;95.20;;;;;;4896524;29;20029;-77
2021/12/15 11:54:22;;;;;;;33.83;22.95;;;10.20;95.10;;;;;;4896487;29;20036;-76
2021/12/15 11:57:15;;;;;;;33.05;22.92;;;10.20;95.10;;;;;;4896420;29;20484;-76
2021/12/15 11:59:49;;;;;;;30.90;21.65;;;10.20;95.20;;;;;;4896022;29;20024;-78
2021/12/15 12:02:33;;;;;;;31.88;22.25;;;10.20;95.10;;;;;;4896033;29;20061;-78
2021/12/15 12:05:24;;;;;;;31.00;22.00;;;10.20;95.10;;;;;;4896267;29;20041;-77
2021/12/15 12:07:59;;;;;;;30.50;21.98;;;10.20;95.10;;;;;;4896186;29;20516;-78
2021/12/15 12:10:41;;;;;;;30.95;21.65;;;10.20;95.10;;;;;;4895952;29;20043;-77
2021/12/15 12:13:13;;;;;;;34.53;23.10;;;10.20;95.10;;;;;;4895998;29;20025;-76
2021/12/15 12:15:46;;;;;;;31.58;22.90;;;10.20;95.10;;;;;;4896102;29;20028;-77
2021/12/15 12:18:18;;;;;;;30.60;21.98;;;10.20;95.10;;;;;;4896151;29;20119;-77
2021/12/15 12:20:48;;;;;;;30.23;21.40;;;10.30;95.10;;;;;;4895696;29;20036;-77
2021/12/15 12:23:16;;;;;;;30.10;21.63;;;10.20;95.10;;;;;;4896016;29;20032;-77
2021/12/15 12:25:48;;;;;;;29.67;21.85;;;10.20;95.10;;;;;;4895752;29;20116;-77
2021/12/15 12:28:19;;;;;;;;;;;10.20;95.10;;;;;;4896334;29;20055;-76
2021/12/15 12:30:51;;;;;;;31.52;21.73;;;10.20;95.10;;;;;;4895683;29;20332;-77
2021/12/15 12:33:19;;;;;;;31.95;22.25;;;10.20;95.10;;;;;;4895859;29;20029;-78
2021/12/15 12:35:55;;;;;;;31.63;22.42;;;10.20;95.10;;;;;;4895310;29;20035;-77
2021/12/15 12:38:24;;;;;;;31.58;22.23;;;10.20;95.10;;;;;;4895841;29;20028;-77
2021/12/15 12:40:58;;;;;;;31.67;22.60;;;10.20;95.10;;;;;;4895758;29;20561;-76
2021/12/15 12:43:33;;;;;;;29.92;21.98;;;10.20;95.10;;;;;;4895765;29;20063;-77
2021/12/15 12:46:06;;;;;;;30.83;21.63;;;10.20;95.10;;;;;;4895487;29;20064;-76
2021/12/15 12:49:12;;;;;;;32.35;22.75;;;10.20;95.10;;;;;;4895584;29;20028;-76
2021/12/15 13:00:33;;;;;;;31.55;22.20;;;10.30;95.10;;;;;;4896755;29;20029;-77
2021/12/15 13:03:16;;;;;;;32.25;21.83;;;10.20;95.10;;;;;;4895599;29;20084;-76
2021/12/15 13:05:47;;;;;;;34.40;23.15;;;10.20;95.00;;;;;;4914309;23;20029;-80
2021/12/15 13:08:42;;;;;;;30.27;21.67;;;10.20;95.10;;;;;;4916401;29;20027;-78
2021/12/15 13:11:25;;;;;;;31.65;22.50;;;10.30;95.10;;;;;;4934220;29;20263;-80
2021/12/15 13:14:09;;;;;;;34.22;23.20;;;10.30;95.10;;;;;;4917537;29;20028;-79
2021/12/15 13:16:41;;;;;;;31.00;21.95;;;10.30;95.00;;;;;;4917467;29;20024;-79
2021/12/15 13:19:32;;;;;;;33.67;23.02;;;10.30;95.10;;;;;;4917386;29;20020;-79
2021/12/15 13:30:49;;;;;;;33.75;23.20;;;10.30;95.00;;;;;;4934163;29;20034;-79
2021/12/15 13:33:29;;;;;;;33.15;22.20;;;10.30;95.00;;;;;;4917275;29;20078;-79
2021/12/15 13:35:57;;;;;;;32.33;22.80;;;10.30;95.00;;;;;;4917217;29;20055;-79
2021/12/15 13:38:39;;;;;;;32.70;22.20;;;10.20;94.90;;;;;;4917391;29;20039;-80
2021/12/15 13:44:24;;;;;;;32.15;22.20;;;10.20;95.00;;;;;;4934358;29;20102;-79
2021/12/15 13:47:00;;;;;;;31.73;22.05;;;10.30;95.00;;;;;;4917934;29;20023;-79
2021/12/15 13:49:52;;;;;;;32.65;21.90;;;10.30;95.00;;;;;;4920331;29;20046;-79
2021/12/15 13:52:29;;;;;;;33.88;22.90;;;10.30;95.00;;;;;;4920699;29;20381;-79
2021/12/15 13:55:00;;;;;;;33.80;22.33;;;10.30;95.00;;;;;;4920567;29;20027;-79
2021/12/15 13:57:38;;;;;;;31.00;21.48;;;10.30;95.00;;;;;;4920446;29;20055;-79
2021/12/15 14:00:11;;;;;;;32.42;22.92;;;10.20;95.00;;;;;;4920288;29;20031;-80
2021/12/15 14:02:52;;;;;;;33.17;22.95;;;10.30;95.00;;;;;;4920030;29;20042;-79
2021/12/15 14:05:17;;;;;;;32.65;21.58;;;10.30;95.00;;;;;;4920667;29;20023;-79
2021/12/15 14:07:46;;;;;;;31.25;21.10;;;10.30;95.00;;;;;;4920475;29;20031;-79
2021/12/15 14:10:12;;;;;;;31.13;21.50;;;10.30;95.00;;;;;;4920085;29;20031;-79
2021/12/15 14:12:47;;;;;;;33.08;22.38;;;10.30;95.00;;;;;;4920432;29;20067;-79
2021/12/15 14:15:25;;;;;;;30.63;22.15;;;10.30;95.00;;;;;;4920198;29;20399;-80
2021/12/15 14:18:01;;;;;;;31.45;21.90;;;10.30;94.90;;;;;;4920336;29;20051;-79
2021/12/15 14:20:29;;;;;;;32.22;22.38;;;10.30;94.90;;;;;;4919893;29;20039;-79
2021/12/15 14:23:00;;;;;;;33.20;22.00;;;10.30;95.00;;;;;;4919956;29;20031;-80
2021/12/15 14:25:26;;;;;;;;;;;10.30;95.00;;;;;;4920662;29;20078;-78
2021/12/15 14:27:52;;;;;;;29.38;20.45;;;10.40;95.00;;;;;;4919874;29;19939;-79
2021/12/15 14:30:19;;;;;;;33.20;21.70;;;10.30;94.90;;;;;;4919715;29;20028;-80
2021/12/15 14:32:45;;;;;;;32.92;22.05;;;10.30;95.20;;;;;;4920146;29;20371;-79
2021/12/15 14:35:23;;;;;;;30.40;21.05;;;10.30;95.00;;;;;;4920030;29;20499;-79
2021/12/15 14:37:49;;;;;;;30.73;20.98;;;10.30;95.00;;;;;;4919765;29;20039;-78
2021/12/15 14:40:15;;;;;;;30.67;20.92;;;10.30;94.90;;;;;;4919555;29;20027;-78
2021/12/15 14:42:45;;;;;;;32.13;21.95;;;10.40;94.90;;;;;;4919760;29;20091;-79
2021/12/15 14:45:12;;;;;;;29.27;20.58;;;10.30;94.90;;;;;;4919753;29;20031;-79
2021/12/15 14:47:41;;;;;;;29.30;20.67;;;10.40;94.90;;;;;;4919655;29;20035;-79
2021/12/15 14:50:14;;;;;;;28.42;19.58;;;10.30;94.90;;;;;;4919537;29;20020;-79
2021/12/15 14:52:43;;;;;;;31.10;20.90;;;10.30;94.90;;;;;;4919323;29;20031;-78
2021/12/15 14:55:23;;;;;;;32.33;21.55;;;10.30;94.90;;;;;;4919572;29;20398;-79
2021/12/15 14:57:49;;;;;;;31.42;20.77;;;10.30;94.90;;;;;;4919131;29;20050;-78
2021/12/15 15:00:25;;;;;;;32.00;21.48;;;10.30;94.90;;;;;;4919168;29;20499;-81
2021/12/15 15:02:56;;;;;;;32.83;20.42;;;10.30;94.90;;;;;;4918897;29;20047;-79
2021/12/15 15:05:28;;;;;;;27.65;19.92;;;10.30;94.90;;;;;;4919494;29;20058;-79
2021/12/15 15:08:01;;;;;;;31.38;21.33;;;10.30;94.80;;;;;;4919177;29;20031;-79
2021/12/15 15:10:31;;;;;;;30.73;20.30;;;10.30;95.10;;;;;;4919014;29;20083;-79
2021/12/15 15:12:57;;;;;;;33.05;20.67;;;10.30;95.10;;;;;;4919247;29;20028;-79
2021/12/15 15:15:31;;;;;;;28.08;19.52;;;10.30;95.00;;;;;;4919060;29;20119;-79
2021/12/15 15:18:12;;;;;;;29.63;20.13;;;10.40;95.00;;;;;;4919332;29;20031;-79
2021/12/15 15:20:43;;;;;;;30.05;20.83;;;10.40;95.00;;;;;;4919135;29;20032;-77
2021/12/15 15:23:12;;;;;;;31.48;20.30;;;10.40;94.90;;;;;;4918940;29;20130;-77
2021/12/15 15:25:42;;;;;;;30.02;19.92;;;10.40;94.90;;;;;;4918924;29;20024;-77
2021/12/15 15:28:14;;;;;;;32.08;20.35;;;10.40;94.90;;;;;;4918809;29;20035;-77
2021/12/15 15:30:42;;;;;;;32.33;20.88;;;10.40;94.90;;;;;;4918578;29;20028;-77
2021/12/15 15:33:30;;;;;;;30.13;20.67;;;10.30;94.80;;;;;;4918708;29;20094;-77
2021/12/15 15:36:00;;;;;;;34.05;21.70;;;10.30;94.80;;;;;;4918022;29;20039;-78
2021/12/15 15:38:30;;;;;;;32.63;22.05;;;10.40;94.80;;;;;;4918734;29;20024;-78